Time;durP1;ratioP1;P1;durP2;ratioP2;P2;SDS_P1;SDS_P2;PMS_P1;PMS_P2;Temp;Humidity;BMP_temperature;BMP_pressure;BME280_temperature;BME280_humidity;BME280_pressure;Samples;Min_cycle;Max_cycle;Signal;HPM_P1;HPM_P2
2024/01/08 00:01:50;;;;;;;14.43;6.38;;;;;;;-2.46;80.81;102680.84;5966562;23;20025;-82
2024/01/08 00:04:21;;;;;;;15.68;6.55;;;-0.70;99.90;;;-2.44;80.98;102688.63;6038530;23;20088;-84
2024/01/08 00:06:47;;;;;;;16.35;5.75;;;-0.70;99.90;;;-2.45;80.91;102694.63;6037015;23;20070;-83
2024/01/08 00:09:13;;;;;;;17.10;6.35;;;-0.80;99.90;;;-2.45;80.96;102699.78;5972318;23;20468;-83
2024/01/08 00:11:39;;;;;;;13.05;5.13;;;-0.70;99.90;;;-2.47;80.46;102704.88;6015527;23;20014;-82
2024/01/08 00:14:06;;;;;;;11.65;5.95;;;-0.70;99.90;;;-2.47;80.68;102697.13;5925466;23;20040;-83
2024/01/08 00:16:41;;;;;;;13.85;5.50;;;-0.70;99.90;;;-2.44;80.78;102704.09;5977984;23;20029;-83
2024/01/08 00:19:07;;;;;;;15.23;6.00;;;-0.80;99.90;;;-2.46;80.40;102704.06;5962914;23;20089;-83
2024/01/08 00:21:32;;;;;;;10.77;5.00;;;-0.70;99.90;;;-2.47;80.08;102699.72;5978319;23;20066;-83
2024/01/08 00:24:08;;;;;;;12.45;5.35;;;;;;;-2.46;80.30;102704.06;5995880;23;20089;-82
2024/01/08 00:26:33;;;;;;;14.15;5.63;;;-0.70;99.90;;;-2.46;80.86;102706.66;6039626;23;20023;-83
2024/01/08 00:28:59;;;;;;;12.02;5.15;;;-0.80;99.90;;;-2.47;80.52;102702.31;5988160;23;20637;-83
2024/01/08 00:31:32;;;;;;;14.98;5.72;;;-0.80;99.90;;;-2.48;80.30;102704.00;6100551;23;20020;-83
2024/01/08 00:34:01;;;;;;;14.55;6.00;;;-0.80;99.90;;;-2.45;80.59;102712.69;6125661;23;20107;-83
2024/01/08 00:36:29;;;;;;;11.55;5.80;;;;;;;-2.48;80.93;102713.47;6100951;23;20457;-84
2024/01/08 00:39:09;;;;;;;13.30;5.75;;;;;;;-2.49;80.25;102716.84;6066738;23;20046;-83
2024/01/08 00:41:46;;;;;;;12.65;5.90;;;-0.80;99.90;;;-2.49;80.51;102717.72;6037255;23;20357;-84
2024/01/08 00:44:12;;;;;;;9.40;4.70;;;-0.80;99.90;;;-2.53;80.31;102720.13;6058717;23;20096;-82
2024/01/08 00:46:38;;;;;;;14.32;5.65;;;-0.80;99.90;;;-2.53;80.28;102723.59;6113680;23;20022;-83
2024/01/08 00:49:09;;;;;;;16.52;5.60;;;-0.80;99.90;;;-2.52;80.42;102727.06;6102924;23;20013;-83
2024/01/08 00:51:35;;;;;;;18.02;6.07;;;-0.80;99.90;;;-2.49;80.35;102734.91;6049148;23;20013;-82
2024/01/08 00:54:00;;;;;;;12.63;5.07;;;-0.80;99.90;;;-2.49;80.96;102729.72;6107746;23;20028;-83
2024/01/08 00:56:26;;;;;;;12.68;4.88;;;-0.80;99.90;;;-2.53;80.48;102736.50;6147495;23;20395;-83
2024/01/08 00:58:52;;;;;;;17.58;6.10;;;-0.80;99.90;;;-2.52;80.71;102733.09;6070954;23;20017;-83
2024/01/08 01:01:30;;;;;;;16.85;6.05;;;-0.80;99.90;;;-2.52;80.95;102739.94;6041811;23;20017;-83
2024/01/08 01:03:59;;;;;;;12.68;4.80;;;-0.80;99.90;;;-2.56;80.82;102740.66;6010294;23;20559;-83
2024/01/08 01:06:31;;;;;;;15.02;6.35;;;-0.80;99.90;;;-2.57;80.73;102746.59;6037372;23;20013;-84
2024/01/08 01:08:59;;;;;;;14.68;6.43;;;;;;;-2.65;80.19;102745.44;6076656;23;20016;-83
2024/01/08 01:11:25;;;;;;;18.00;7.32;;;;;;;-2.66;80.43;102751.41;6088396;23;20023;-83
2024/01/08 01:14:01;;;;;;;11.43;5.28;;;;;;;-2.72;80.62;102758.09;6047751;23;20056;-85
2024/01/08 01:16:30;;;;;;;13.45;5.97;;;-1.00;99.90;;;-2.75;80.46;102763.09;6105682;23;20048;-84
2024/01/08 01:19:02;;;;;;;13.25;5.95;;;;;;;-2.80;80.36;102751.72;6024263;23;20065;-82
2024/01/08 01:21:30;;;;;;;12.30;5.80;;;-1.10;99.90;;;-2.88;80.47;102759.13;6032430;23;20018;-82
2024/01/08 01:24:06;;;;;;;19.10;7.07;;;-1.10;99.90;;;-2.88;80.06;102759.13;6044013;23;20008;-82
2024/01/08 01:26:31;;;;;;;;;;;-1.10;99.90;;;-2.89;80.30;102767.69;6063899;23;20024;-82
2024/01/08 01:29:00;;;;;;;19.27;6.90;;;-1.10;99.90;;;-2.90;80.33;102755.63;6105619;23;20274;-82
2024/01/08 01:31:49;;;;;;;15.40;6.18;;;-1.20;99.90;;;-2.94;80.48;102763.16;6099200;23;20452;-82
2024/01/08 01:34:18;;;;;;;14.45;6.43;;;;;;;-2.94;80.11;102770.91;6164483;23;20081;-81
2024/01/08 01:36:53;;;;;;;17.20;6.82;;;-1.20;99.90;;;-2.96;80.27;102772.53;6101307;23;20078;-81
2024/01/08 01:39:20;;;;;;;14.63;6.85;;;;;;;-2.92;80.66;102770.13;6025390;23;20024;-82
2024/01/08 01:42:00;;;;;;;15.52;6.50;;;;;;;-2.91;80.72;102774.50;6178573;23;20020;-81
2024/01/08 01:44:29;;;;;;;18.80;7.90;;;-1.20;99.90;;;-2.90;80.36;102780.53;6058407;23;20485;-81
2024/01/08 01:47:09;;;;;;;17.30;6.88;;;-1.20;99.90;;;-2.89;80.44;102788.31;6137894;23;20024;-81
2024/01/08 01:49:54;;;;;;;;;;;;;;;;;;;;;
2024/01/08 01:52:28;;;;;;;19.05;7.43;;;-1.20;99.90;;;-2.92;80.38;102787.31;6103176;23;20466;-81
2024/01/08 01:55:01;;;;;;;16.73;7.05;;;-1.20;99.90;;;-2.96;80.59;102783.75;6033351;23;20092;-81
2024/01/08 01:57:30;;;;;;;13.98;5.85;;;;;;;-3.03;80.81;102784.28;6163376;23;20311;-82
2024/01/08 01:59:58;;;;;;;14.95;6.38;;;-1.30;99.90;;;-3.03;80.68;102784.28;6157392;23;20013;-82
2024/01/08 02:02:31;;;;;;;17.13;6.65;;;-1.30;99.90;;;-3.08;80.50;102779.75;5997728;23;20363;-82
2024/01/08 02:04:58;;;;;;;14.50;6.10;;;-1.30;99.90;;;-3.10;80.39;102790.88;6115487;23;20013;-83
2024/01/08 02:07:25;;;;;;;13.77;6.55;;;;;;;-3.08;80.03;102795.22;6053478;23;20092;-82
2024/01/08 02:09:59;;;;;;;19.70;6.78;;;-1.30;99.90;;;-3.10;80.41;102796.03;6046838;23;20564;-82
2024/01/08 02:12:59;;;;;;;;;;;;;;;;;;;;;
2024/01/08 02:15:25;;;;;;;13.00;5.68;;;-1.40;99.90;;;-3.13;79.96;102813.94;6036770;23;20290;-83
2024/01/08 02:18:00;;;;;;;18.33;6.03;;;;;;;-3.16;79.98;102808.66;5999510;23;20021;-82
2024/01/08 02:20:28;;;;;;;16.70;5.68;;;;;;;-3.17;80.38;102803.44;6053213;23;20492;-82
2024/01/08 02:22:54;;;;;;;13.23;5.95;;;-1.40;99.90;;;-3.17;80.54;102812.06;5989348;23;20084;-81
2024/01/08 02:25:31;;;;;;;14.13;6.28;;;-1.40;99.90;;;-3.17;80.36;102817.22;5953370;23;20346;-80
2024/01/08 02:28:07;;;;;;;18.38;6.47;;;-1.40;99.90;;;-3.18;80.30;102809.41;6036891;23;20165;-81
2024/01/08 02:30:33;;;;;;;13.23;5.40;;;-1.40;99.90;;;-3.22;79.94;102810.06;6013213;23;20095;-81
2024/01/08 02:32:59;;;;;;;15.23;5.50;;;-1.50;99.90;;;-3.26;79.64;102816.81;6033623;23;20036;-81
2024/01/08 02:35:24;;;;;;;11.65;5.22;;;-1.50;99.90;;;-3.26;80.25;102816.81;6070821;23;20441;-80
2024/01/08 02:37:50;;;;;;;15.75;6.82;;;-1.50;99.90;;;-3.30;79.63;102817.50;6060261;23;20080;-81
2024/01/08 02:40:27;;;;;;;12.02;6.00;;;-1.50;99.90;;;-3.26;80.38;102828.78;6065396;23;20484;-80
2024/01/08 02:42:53;;;;;;;15.10;5.75;;;-1.50;99.90;;;-3.26;80.01;102829.69;6090523;23;20028;-81
2024/01/08 02:45:32;;;;;;;12.88;5.57;;;-1.50;99.90;;;-3.25;80.74;102831.44;6054134;23;24263;-81
2024/01/08 02:47:57;;;;;;;14.77;7.00;;;-1.50;99.90;;;-3.26;80.00;102828.78;6052339;22;20035;-81
2024/01/08 02:50:32;;;;;;;13.43;5.97;;;-1.50;99.90;;;-3.27;80.12;102830.50;6074799;23;20037;-80
2024/01/08 02:52:58;;;;;;;16.25;6.70;;;-1.50;99.90;;;-3.31;79.69;102831.16;6083756;23;20199;-81
2024/01/08 02:55:24;;;;;;;14.23;6.45;;;-1.50;99.90;;;-3.34;79.65;102841.34;6110073;23;20557;-81
2024/01/08 02:57:50;;;;;;;14.00;6.07;;;-1.60;99.90;;;-3.37;80.21;102838.63;6073730;23;20013;-80
2024/01/08 03:00:27;;;;;;;13.35;6.50;;;-1.60;99.90;;;-3.40;79.82;102841.94;6062941;23;20008;-81
2024/01/08 03:02:53;;;;;;;19.10;6.78;;;-1.60;99.90;;;-3.43;80.28;102841.81;6058883;23;20024;-80
2024/01/08 03:05:18;;;;;;;20.02;6.75;;;-1.70;99.90;;;-3.48;80.04;102835.56;6024439;23;20015;-80
2024/01/08 03:07:49;;;;;;;13.90;6.97;;;-1.70;99.90;;;-3.56;79.75;102839.53;6095144;23;20097;-81
2024/01/08 03:10:15;;;;;;;16.48;6.97;;;-1.80;99.90;;;-3.66;80.05;102838.19;6149837;22;20021;-80
2024/01/08 03:12:41;;;;;;;16.55;7.13;;;-1.90;99.90;;;-3.71;80.09;102842.28;6030205;23;20017;-81
2024/01/08 03:15:07;;;;;;;16.15;6.93;;;-2.00;99.90;;;-3.78;79.86;102835.06;6056951;23;20064;-80
2024/01/08 03:17:34;;;;;;;18.45;7.18;;;-2.00;99.90;;;-3.81;79.89;102834.94;6059290;23;20222;-81
2024/01/08 03:20:08;;;;;;;17.15;7.93;;;;;;;-3.84;79.91;102834.81;6173963;23;20013;-82
2024/01/08 03:22:34;;;;;;;15.13;6.18;;;-1.20;99.90;;;-3.90;79.99;102834.50;6096237;23;20152;-80
2024/01/08 03:25:00;;;;;;;15.00;7.20;;;-2.10;99.90;;;-4.01;79.80;102840.03;6035566;23;20024;-80
2024/01/08 03:27:33;;;;;;;14.80;6.53;;;-2.30;99.90;;;-4.17;79.93;102829.81;6028578;23;20020;-81
2024/01/08 03:30:01;;;;;;;16.30;6.43;;;-2.40;99.90;;;-4.29;78.95;102847.25;6073730;23;20096;-82
2024/01/08 03:32:27;;;;;;;17.15;7.47;;;-2.50;99.90;;;-4.42;79.12;102835.47;6094578;23;20029;-81
2024/01/08 03:34:53;;;;;;;20.92;7.72;;;-2.60;99.90;;;-4.52;79.17;102834.13;6030588;23;20078;-81
2024/01/08 03:37:19;;;;;;;20.42;8.43;;;-2.70;99.90;;;-4.55;79.73;102836.56;6061940;23;20028;-81
2024/01/08 03:39:56;;;;;;;17.52;7.05;;;-2.80;99.90;;;-4.61;79.69;102833.69;6034713;23;20012;-81
2024/01/08 03:42:22;;;;;;;13.40;6.13;;;-2.80;99.90;;;-4.67;80.49;102838.53;6099178;23;20395;-80
2024/01/08 03:44:56;;;;;;;18.02;7.47;;;-2.90;99.90;;;-4.71;80.20;102836.59;6087491;23;20013;-81
2024/01/08 03:47:22;;;;;;;18.67;7.10;;;-2.90;99.90;;;-4.77;79.79;102834.63;6016825;23;20018;-81
2024/01/08 03:49:48;;;;;;;15.32;7.18;;;-2.90;99.90;;;-4.80;80.15;102825.06;6061731;22;20399;-81
2024/01/08 03:52:23;;;;;;;15.20;6.93;;;-3.00;99.90;;;-4.89;79.88;102816.88;6053325;23;20016;-81
2024/01/08 03:54:49;;;;;;;14.05;6.65;;;-3.10;99.90;;;-4.99;80.61;102824.94;6118393;23;20408;-81
2024/01/08 03:57:15;;;;;;;20.08;7.20;;;-3.20;99.90;;;-5.11;80.01;102812.38;6066012;23;20013;-81
2024/01/08 03:59:42;;;;;;;15.73;7.45;;;-3.30;99.90;;;-5.19;80.85;102824.78;6057546;23;20526;-80
2024/01/08 04:02:17;;;;;;;14.93;6.63;;;-3.30;99.90;;;-5.22;80.86;102824.66;6149617;23;20070;-80
2024/01/08 04:04:43;;;;;;;20.00;7.38;;;-3.40;99.90;;;-5.27;80.00;102825.22;6154263;23;20016;-80
2024/01/08 04:07:34;;;;;;;15.00;7.07;;;-3.40;99.90;;;-5.29;80.87;102827.72;6167385;23;20020;-80
2024/01/08 04:10:00;;;;;;;19.98;7.28;;;-3.40;99.90;;;-5.34;80.90;102824.00;6035176;23;20479;-80
2024/01/08 04:12:26;;;;;;;18.48;7.13;;;-3.50;99.90;;;-5.34;80.66;102830.84;5989937;23;20094;-80
2024/01/08 04:14:52;;;;;;;17.42;6.88;;;-3.50;99.90;;;-5.36;80.75;102825.59;5970918;23;20011;-79
2024/01/08 04:17:18;;;;;;;19.38;7.57;;;-3.50;99.90;;;-5.37;81.22;102834.13;5960796;23;20078;-80
2024/01/08 04:19:52;;;;;;;16.20;7.00;;;-3.50;99.90;;;-5.32;81.78;102834.38;5945561;23;20034;-80
2024/01/08 04:22:18;;;;;;;19.10;6.97;;;-3.50;99.90;;;-5.28;82.04;102837.16;5975548;23;20101;-80
2024/01/08 04:24:44;;;;;;;15.18;7.43;;;-3.40;99.90;;;-5.24;82.13;102840.78;5989212;23;20523;-81
2024/01/08 04:27:10;;;;;;;21.95;8.63;;;-3.40;99.90;;;-5.23;82.17;102843.41;5979683;23;20030;-80
2024/01/08 04:29:44;;;;;;;20.92;8.90;;;-3.40;99.90;;;-5.28;82.12;102862.84;5978584;23;20583;-80
2024/01/08 04:32:10;;;;;;;13.73;6.10;;;-3.50;99.90;;;-5.30;82.65;102861.00;5920125;23;20594;-80
2024/01/08 04:34:46;;;;;;;25.80;10.00;;;-3.40;99.90;;;-5.29;83.64;102860.19;6061134;23;20010;-81
2024/01/08 04:37:11;;;;;;;;;;;-3.40;99.90;;;-5.26;82.86;102868.97;5990468;23;20018;-80
2024/01/08 04:39:39;;;;;;;;;;;-3.40;99.90;;;-5.23;83.57;102874.25;5989411;23;19910;-81
2024/01/08 04:42:13;;;;;;;22.63;8.57;;;-3.40;99.90;;;-5.18;83.83;102871.94;5976665;23;19948;-81
2024/01/08 04:44:38;;;;;;;24.88;8.23;;;-3.30;99.90;;;-5.16;83.72;102876.34;5983240;23;20019;-81
2024/01/08 04:47:05;;;;;;;17.55;7.70;;;-3.30;99.90;;;-5.10;84.44;102875.75;5969673;23;20036;-81
2024/01/08 04:49:31;;;;;;;23.38;8.20;;;-3.30;99.90;;;-5.06;83.54;102866.53;6094085;23;20022;-80
2024/01/08 04:51:56;;;;;;;22.88;8.55;;;-3.20;99.90;;;-5.00;83.78;102878.00;6001918;23;20211;-81
2024/01/08 04:54:22;;;;;;;29.98;12.55;;;-3.20;99.90;;;-4.91;84.55;102882.75;6061202;23;20528;-80
2024/01/08 04:56:58;;;;;;;31.30;13.52;;;-3.10;99.90;;;-4.84;84.04;102884.81;6020424;23;20026;-80
2024/01/08 04:59:24;;;;;;;32.35;13.00;;;-3.00;99.90;;;-4.78;84.34;102894.53;6042070;23;20393;-80
2024/01/08 05:01:50;;;;;;;29.33;11.80;;;-3.00;99.90;;;-4.72;84.17;102886.28;6107506;23;20017;-80
2024/01/08 05:04:25;;;;;;;22.50;10.35;;;-2.90;99.90;;;-4.65;83.93;102893.47;6082082;23;20016;-80
2024/01/08 05:06:51;;;;;;;25.50;9.68;;;-2.90;99.90;;;-4.61;83.99;102897.97;6096176;23;20639;-80
2024/01/08 05:09:17;;;;;;;26.08;9.68;;;-2.80;99.90;;;-4.58;83.87;102908.41;6140890;23;20091;-81
2024/01/08 05:11:43;;;;;;;22.80;10.20;;;-2.80;99.90;;;-4.56;84.44;102902.56;6108929;22;20013;-79
2024/01/08 05:14:18;;;;;;;25.88;9.23;;;-2.80;99.90;;;-4.51;83.93;102907.91;6035496;23;20352;-80
2024/01/08 05:16:44;;;;;;;22.17;9.15;;;-2.80;99.90;;;-4.52;84.38;102916.41;6060939;23;20021;-79
2024/01/08 05:19:10;;;;;;;19.98;8.00;;;-2.70;99.90;;;-4.53;84.04;102909.53;6062369;23;20318;-80
2024/01/08 05:21:41;;;;;;;19.45;8.60;;;-2.80;99.90;;;-4.54;84.22;102910.31;6089849;23;20091;-80
2024/01/08 05:24:09;;;;;;;20.98;8.25;;;-2.70;99.90;;;-4.50;84.57;102912.25;6175191;23;20071;-81
2024/01/08 05:26:35;;;;;;;20.05;7.75;;;-2.70;99.90;;;-4.49;84.43;102913.13;6158933;23;20013;-81
2024/01/08 05:29:01;;;;;;;18.80;8.05;;;-2.70;99.90;;;-4.50;84.37;102909.66;6079770;23;20019;-80
2024/01/08 05:31:32;;;;;;;21.95;8.63;;;-2.70;99.90;;;-4.50;84.45;102912.25;6107862;23;20512;-81
2024/01/08 05:33:58;;;;;;;16.58;7.32;;;-2.70;99.90;;;-4.57;84.35;102913.63;6125793;23;20015;-81
2024/01/08 05:36:24;;;;;;;21.55;8.48;;;-2.70;99.90;;;-4.60;84.74;102910.00;6118251;23;20059;-80
2024/01/08 05:38:50;;;;;;;18.77;7.93;;;-2.80;99.90;;;-4.59;84.62;102917.81;6094675;23;20095;-81
2024/01/08 05:41:18;;;;;;;20.50;8.23;;;-2.80;99.90;;;-4.54;84.98;102928.31;6075730;23;20058;-81
2024/01/08 05:43:53;;;;;;;22.23;8.43;;;-2.80;99.90;;;-4.56;84.85;102924.78;6097390;23;20013;-81
2024/01/08 05:46:18;;;;;;;17.00;7.95;;;-2.70;99.90;;;-4.55;84.83;102924.88;6104782;23;20832;-81
2024/01/08 05:48:44;;;;;;;21.48;9.75;;;-2.70;99.90;;;-4.50;85.17;102927.66;6081334;23;20017;-80
2024/01/08 05:51:11;;;;;;;20.45;8.15;;;-2.70;99.90;;;-4.48;85.10;102928.63;6108797;23;20078;-81
2024/01/08 05:53:41;;;;;;;18.80;8.32;;;-2.70;99.90;;;-4.43;85.08;102929.72;6079976;23;20016;-81
2024/01/08 05:56:09;;;;;;;20.85;8.60;;;-2.70;99.90;;;-4.41;85.41;102922.97;6095214;23;20713;-81
2024/01/08 05:58:45;;;;;;;19.08;8.35;;;-2.60;99.90;;;-4.34;84.95;102925.06;6126866;23;20071;-81
2024/01/08 06:01:25;;;;;;;;;;;;;;;;;;;;;
2024/01/08 06:03:51;;;;;;;20.10;8.38;;;-2.50;99.90;;;-4.23;85.46;102933.31;6125725;23;20103;-82
2024/01/08 06:06:32;;;;;;;20.40;8.07;;;-2.40;99.90;;;-4.18;85.94;102931.84;5999127;23;20022;-82
2024/01/08 06:09:01;;;;;;;22.20;8.68;;;;;;;-4.15;85.51;102931.09;6028456;23;20184;-82
2024/01/08 06:11:54;;;;;;;17.48;7.13;;;-2.40;99.90;;;-4.13;85.15;102927.78;6064506;23;20022;-81
2024/01/08 06:14:20;;;;;;;19.92;7.57;;;-2.40;99.90;;;-4.06;85.03;102935.81;6059507;23;20022;-82
2024/01/08 06:17:01;;;;;;;15.93;6.57;;;;;;;-4.01;85.81;102942.09;6035620;23;20016;-81
2024/01/08 06:19:51;;;;;;;18.00;7.75;;;;;;;-3.95;85.86;102943.28;6065677;23;20037;-82
2024/01/08 06:22:51;;;;;;;17.25;6.25;;;-2.20;99.90;;;-3.91;85.90;102933.97;6012304;23;20431;-82
2024/01/08 06:26:02;;;;;;;8.27;3.40;;;-2.10;99.90;;;-3.71;86.53;102958.13;6087554;23;20022;-82
2024/01/08 06:31:22;;;;;;;6.43;2.35;;;-1.70;99.90;;;-3.30;86.99;102949.75;5954200;23;20423;-82
2024/01/08 06:34:31;;;;;;;7.70;2.50;;;-1.50;99.90;;;-3.04;86.50;102952.66;6028149;23;20016;-82
2024/01/08 06:37:31;;;;;;;5.20;2.63;;;-1.30;99.90;;;-2.78;85.86;102961.53;6001454;23;20042;-82
2024/01/08 06:40:29;;;;;;;6.75;2.80;;;-1.00;99.90;;;-2.60;85.35;102965.75;6006972;23;20907;-81
2024/01/08 06:43:40;;;;;;;7.15;2.65;;;-0.90;99.90;;;-2.48;84.84;102972.31;5975128;23;20492;-82
2024/01/08 06:46:29;;;;;;;9.40;2.85;;;-0.80;99.90;;;-2.38;84.45;102976.16;6031531;23;20023;-82
2024/01/08 06:51:52;;;;;;;8.32;2.83;;;;;;;-2.18;83.30;102991.59;6060197;23;20504;-82
2024/01/08 06:54:30;;;;;;;11.50;3.75;;;-0.50;99.90;;;-2.15;83.35;102994.31;6082266;23;20070;-82
2024/01/08 06:57:12;;;;;;;10.70;4.55;;;-0.50;99.90;;;-2.13;82.93;103003.03;6122852;23;20012;-82
2024/01/08 07:02:22;;;;;;;12.00;4.75;;;;;;;-2.18;82.93;103012.25;6134960;23;20020;-82
2024/01/08 07:05:32;;;;;;;11.05;5.38;;;-0.60;99.90;;;-2.26;82.53;103027.41;6118139;23;20552;-81
2024/01/08 07:08:23;;;;;;;11.80;5.00;;;;;;;-2.28;82.60;103023.91;6108240;23;20017;-82
2024/01/08 07:11:21;;;;;;;9.50;4.72;;;;;;;-2.30;83.00;103031.56;6130265;23;20566;-82
2024/01/08 07:14:53;;;;;;;13.10;3.65;;;-0.60;99.90;;;-2.38;82.89;103030.34;6017957;23;20023;-82
2024/01/08 07:17:32;;;;;;;9.82;3.08;;;;;;;-2.37;83.33;103032.13;5943528;23;20479;-82
2024/01/08 07:20:53;;;;;;;18.90;7.57;;;;;;;-2.36;83.17;103031.28;5983552;23;20018;-82
2024/01/08 07:23:42;;;;;;;14.80;5.78;;;;;;;-2.34;83.11;103045.13;5982689;23;20065;-82
2024/01/08 07:27:13;;;;;;;;;;;;;;;;;;;;;
2024/01/08 07:32:12;;;;;;;14.75;6.22;;;;;;;-2.48;83.53;103051.41;6197858;22;20026;-81
2024/01/08 07:35:04;;;;;;;14.70;6.75;;;;;;;-2.49;84.11;103057.38;6127700;22;20458;-83
2024/01/08 07:37:30;;;;;;;16.58;7.47;;;-1.00;99.90;;;-2.49;83.99;103062.53;6078540;23;20023;-82
2024/01/08 07:43:41;;;;;;;20.73;6.93;;;-0.70;99.90;;;-2.38;84.66;103068.16;6141402;23;20142;-83
2024/01/08 07:52:13;;;;;;;13.73;6.57;;;;;;;-2.34;84.01;103083.84;6144779;23;20048;-82
2024/01/08 07:55:04;;;;;;;;;;;;;;;;;;;;;
2024/01/08 07:57:34;;;;;;;11.65;5.57;;;-0.60;99.90;;;-2.32;85.06;103082.22;6112015;23;20096;-82
2024/01/08 08:00:13;;;;;;;6.68;3.20;;;-0.60;99.90;;;-2.27;84.36;103085.91;6177774;23;20352;-81
2024/01/08 08:02:52;;;;;;;3.88;2.00;;;;;;;-2.12;83.63;103095.13;6105133;23;20025;-83
2024/01/08 08:05:43;;;;;;;5.20;2.17;;;;;;;-2.02;82.36;103094.72;6142595;23;20024;-82
2024/01/08 08:08:12;;;;;;;5.15;2.00;;;-0.30;99.90;;;-1.92;81.46;103096.00;6189842;23;20027;-84
2024/01/08 08:11:03;;;;;;;5.65;2.00;;;-0.20;99.90;;;-1.79;79.79;103106.03;6161381;22;20032;-84
2024/01/08 08:13:41;;;;;;;8.50;1.98;;;-0.10;99.90;;;-1.68;79.26;103104.78;6060516;23;20027;-82
2024/01/08 08:16:13;;;;;;;5.10;2.30;;;0.00;99.90;;;-1.58;78.96;103116.34;6007450;23;20010;-82
2024/01/08 08:18:54;;;;;;;7.03;2.25;;;;;;;-1.49;78.38;103121.03;6053637;23;20540;-82
2024/01/08 08:22:00;;;;;;;4.75;1.95;;;0.20;99.90;;;-1.36;78.72;103128.50;5980884;23;20015;-82
2024/01/08 08:24:42;;;;;;;8.10;2.80;;;0.30;99.90;;;-1.27;78.74;103135.75;5911510;23;20058;-81
2024/01/08 08:27:23;;;;;;;6.80;2.70;;;0.40;99.90;;;-1.21;78.94;103137.69;5985315;23;20023;-82
2024/01/08 08:30:31;;;;;;;8.23;2.58;;;;;;;-1.18;78.79;103137.81;5981036;23;20028;-81
2024/01/08 08:33:13;;;;;;;10.18;2.75;;;;;;;-1.14;78.68;103147.47;6159390;23;20025;-83
2024/01/08 08:35:42;;;;;;;7.25;3.67;;;;;;;-1.09;79.17;103153.69;6099332;23;20406;-83
2024/01/08 08:38:53;;;;;;;7.10;2.70;;;;;;;-1.01;78.76;103154.00;6089429;23;20014;-82
2024/01/08 08:41:34;;;;;;;5.40;2.53;;;0.60;99.90;;;-1.01;79.04;103154.00;6022131;23;20014;-84
2024/01/08 08:44:29;;;;;;;8.38;2.72;;;;;;;-0.99;79.03;103160.09;6018359;23;20062;-82
2024/01/08 08:47:51;;;;;;;3.95;2.47;;;0.60;99.90;;;-0.98;78.73;103175.69;5871517;23;20032;-83
2024/01/08 08:50:53;;;;;;;11.20;2.90;;;;;;;-0.95;78.60;103172.34;5931786;23;20119;-82
2024/01/08 08:54:04;;;;;;;6.28;2.70;;;0.70;99.90;;;-0.86;78.73;103183.06;6068921;23;20043;-82
2024/01/08 08:57:01;;;;;;;3.55;2.25;;;0.70;99.90;;;-0.80;78.81;103188.47;5976719;23;20025;-82
2024/01/08 09:02:33;;;;;;;5.25;2.38;;;;;;;-0.84;78.40;103189.19;6216566;22;20028;-82
2024/01/08 09:08:25;;;;;;;4.95;2.58;;;;;;;-0.78;77.47;103197.16;6092419;23;20014;-83
2024/01/08 09:14:12;;;;;;;4.03;2.40;;;0.90;99.90;;;-0.80;77.12;103206.56;6124551;23;20571;-82
2024/01/08 09:20:42;;;;;;;7.40;2.40;;;0.70;99.90;;;-0.87;75.07;103210.63;6049805;22;20953;-84
2024/01/08 09:23:23;;;;;;;5.60;2.20;;;;;;;-0.85;75.29;103213.28;5973316;23;20841;-82
2024/01/08 09:26:46;;;;;;;;;;;;;;;;;;;;;
2024/01/08 09:33:26;;;;;;;;;;;;;;;;;;;;;
2024/01/08 09:35:53;;;;;;;6.43;2.42;;;;;;;-0.71;74.63;103225.06;6137307;23;20041;-81
2024/01/08 09:39:04;;;;;;;;;;;;;;;;;;;;;
2024/01/08 09:41:34;;;;;;;4.95;1.98;;;;;;;-0.53;75.03;103234.38;6104799;23;20835;-82
2024/01/08 09:45:13;;;;;;;6.03;2.42;;;1.10;99.90;;;-0.47;74.93;103232.91;6057145;23;20028;-81
2024/01/08 09:48:41;;;;;;;;;;;0.90;99.90;;;-0.39;74.44;103237.50;6043718;23;20018;-83
2024/01/08 09:59:23;;;;;;;;;;;1.30;99.90;;;-0.28;73.72;103246.56;6072764;23;20022;-82
2024/01/08 10:03:03;;;;;;;6.97;2.42;;;1.30;99.90;;;-0.20;74.08;103252.94;6114726;23;19916;-82
2024/01/08 10:06:03;;;;;;;4.60;2.30;;;;;;;-0.20;73.72;103252.94;6120174;23;20058;-83
2024/01/08 10:09:32;;;;;;;4.78;1.75;;;1.30;99.90;;;-0.27;73.74;103261.28;6147720;23;20012;-83
2024/01/08 10:12:43;;;;;;;4.68;2.00;;;;;;;-0.32;73.40;103255.94;6120564;22;20071;-82
2024/01/08 10:31:55;;;;;;;7.22;1.83;;;;;;;0.17;73.24;103270.75;6159857;22;20024;-85
2024/01/08 11:03:25;;;;;;;8.85;2.05;;;1.70;99.90;;;0.04;71.32;103273.69;5993413;23;20056;-83
2024/01/08 11:06:36;;;;;;;7.88;2.17;;;1.60;99.90;;;0.07;71.63;103270.34;5882415;24;20017;-82
2024/01/08 11:13:15;;;;;;;4.53;2.35;;;1.60;99.90;;;0.12;72.03;103261.03;6238269;22;20012;-84
2024/01/08 11:23:25;;;;;;;4.72;1.88;;;1.60;99.90;;;-0.05;72.04;103260.41;6091943;23;20128;-84
2024/01/08 11:25:51;;;;;;;8.48;2.25;;;1.60;99.90;;;-0.06;72.22;103261.25;6055166;23;20022;-80
2024/01/08 11:28:22;;;;;;;6.45;2.05;;;1.50;99.90;;;-0.01;72.99;103263.16;6084072;23;20066;-81
2024/01/08 11:31:02;;;;;;;4.80;2.38;;;1.60;99.90;;;0.01;73.09;103262.34;6082536;23;20080;-81
2024/01/08 11:34:03;;;;;;;6.25;2.20;;;1.60;99.90;;;0.08;72.92;103262.63;6050792;23;20022;-81
2024/01/08 11:37:12;;;;;;;6.88;2.22;;;1.50;99.90;;;0.02;72.91;103264.97;6072270;23;20080;-81
2024/01/08 11:42:33;;;;;;;4.63;2.33;;;1.60;99.90;;;0.04;72.87;103275.41;6104801;23;20020;-82
2024/01/08 11:45:02;;;;;;;4.95;1.80;;;;;;;0.09;73.17;103267.00;6101363;23;20378;-80
2024/01/08 11:47:36;;;;;;;7.85;2.20;;;1.60;99.90;;;0.17;72.94;103273.34;6093349;23;20013;-81
2024/01/08 11:50:50;;;;;;;13.85;4.85;;;1.60;99.90;;;0.19;73.34;103275.97;6107150;22;20067;-80
2024/01/08 11:57:33;;;;;;;4.80;2.10;;;1.70;99.90;;;0.07;73.03;103273.81;5936241;23;20026;-81
2024/01/08 12:03:09;;;;;;;2.95;1.63;;;;;;;0.22;72.66;103285.56;6084295;23;20018;-81
2024/01/08 12:06:07;;;;;;;4.93;1.90;;;1.80;99.90;;;0.40;73.14;103291.44;5959910;23;20027;-80
2024/01/08 12:08:42;;;;;;;2.88;1.60;;;1.80;99.90;;;0.45;72.06;103294.19;5845375;23;20066;-81
2024/01/08 12:11:50;;;;;;;4.15;1.95;;;;;;;0.49;72.13;103304.72;5909652;23;20020;-81
2024/01/08 12:14:22;;;;;;;4.40;1.40;;;;;;;0.31;72.08;103302.34;5927226;23;20028;-80
2024/01/08 12:17:33;;;;;;;3.85;1.48;;;;;;;0.31;72.06;103309.25;5888866;23;20059;-81
2024/01/08 12:21:48;;;;;;;4.03;1.80;;;;;;;0.28;72.16;103309.13;5782845;24;20040;-80
2024/01/08 12:24:23;;;;;;;4.65;1.52;;;1.80;99.90;;;0.30;72.19;103315.25;5165375;24;4979616;-80
2024/01/08 12:27:05;;;;;;;11.75;1.90;;;;;;;0.38;72.03;103311.25;5605015;24;68927;-80
2024/01/08 12:29:31;;;;;;;4.47;1.80;;;;;;;0.31;71.45;103317.03;5653109;25;20028;-80
2024/01/08 12:32:24;;;;;;;11.23;2.10;;;1.80;99.90;;;0.35;71.59;103318.91;5695485;25;20119;-80
2024/01/08 12:35:05;;;;;;;3.72;1.70;;;;;;;0.33;71.39;103323.16;5485097;24;5005452;-79
2024/01/08 12:37:33;;;;;;;4.70;1.75;;;1.80;99.90;;;0.27;71.56;103316.03;5537566;24;2375408;-80
2024/01/08 12:40:13;;;;;;;7.35;1.60;;;;;;;0.23;70.98;103326.22;5709178;24;20019;-80
2024/01/08 12:43:23;;;;;;;5.95;1.40;;;;;;;0.22;70.95;103321.84;5696940;24;20057;-80
2024/01/08 12:46:33;;;;;;;6.20;1.45;;;1.80;99.90;;;0.28;70.42;103329.84;5707645;24;20075;-81
2024/01/08 12:49:33;;;;;;;3.95;1.42;;;1.80;99.90;;;0.28;70.13;103332.44;5703252;24;20343;-80
2024/01/08 12:52:10;;;;;;;4.75;1.02;;;1.70;99.90;;;0.22;69.55;103330.53;6079957;23;20400;-83
2024/01/08 12:54:38;;;;;;;5.60;1.33;;;1.70;99.90;;;0.09;69.58;103329.19;6051736;23;20025;-81
2024/01/08 12:57:11;;;;;;;2.08;1.08;;;;;;;-0.03;69.76;103332.16;6078628;23;20009;-81
2024/01/08 12:59:37;;;;;;;6.85;1.45;;;1.50;99.90;;;-0.03;69.78;103334.75;6119694;23;20012;-80
2024/01/08 13:02:03;;;;;;;3.58;1.13;;;1.50;99.90;;;-0.15;70.00;103341.16;6101798;22;20017;-80
2024/01/08 13:04:42;;;;;;;3.35;1.20;;;1.40;99.90;;;-0.15;69.68;103335.97;6074936;23;20040;-83
2024/01/08 13:07:18;;;;;;;8.20;1.80;;;1.40;99.90;;;-0.14;70.10;103342.94;6123182;23;20024;-82
2024/01/08 13:09:44;;;;;;;3.25;1.00;;;1.40;99.90;;;-0.16;70.50;103347.16;6104029;23;20017;-81
2024/01/08 13:12:10;;;;;;;3.70;1.30;;;1.30;99.90;;;-0.30;70.65;103339.75;6140081;23;20024;-82
2024/01/08 13:14:37;;;;;;;5.10;1.00;;;1.40;99.90;;;-0.28;71.03;103345.88;6099506;23;20047;-83
2024/01/08 13:17:11;;;;;;;3.97;1.27;;;1.40;99.90;;;-0.18;71.31;103341.91;6095778;23;20162;-81